createdAt,value
2023-03-01T00:01:35.252Z,14.27
2023-03-01T00:04:03.245Z,12.30
2023-03-01T00:06:31.480Z,10.87
2023-03-01T00:08:59.575Z,12.03
2023-03-01T00:11:29.247Z,11.57
2023-03-01T00:13:58.830Z,10.13
2023-03-01T00:16:30.355Z,13.27
2023-03-01T00:18:59.728Z,12.83
2023-03-01T00:21:28.267Z,10.97
2023-03-01T00:23:56.518Z,13.53
2023-03-01T00:26:25.698Z,9.67
2023-03-01T00:28:54.151Z,14.17
2023-03-01T00:31:24.674Z,9.33
2023-03-01T00:33:58.033Z,10.27
2023-03-01T00:36:27.084Z,9.33
2023-03-01T00:38:55.212Z,10.07
2023-03-01T00:41:24.283Z,13.40
2023-03-01T00:43:52.672Z,11.53
2023-03-01T00:46:23.097Z,12.93
2023-03-01T00:48:51.248Z,9.97
2023-03-01T00:51:23.254Z,10.77
2023-03-01T00:53:55.350Z,14.27
2023-03-01T00:56:23.536Z,11.30
2023-03-01T00:58:51.761Z,13.23
2023-03-01T01:01:21.866Z,10.67
2023-03-01T01:03:51.820Z,12.83
2023-03-01T01:06:24.780Z,11.37
2023-03-01T01:08:53.589Z,13.90
2023-03-01T01:11:21.968Z,11.57
2023-03-01T01:13:50.621Z,14.43
2023-03-01T01:16:21.154Z,11.30
2023-03-01T01:18:49.450Z,12.13
2023-03-01T01:21:18.965Z,13.33
2023-03-01T01:23:49.004Z,11.43
2023-03-01T01:26:19.494Z,11.70
2023-03-01T01:28:48.123Z,12.70
2023-03-01T01:31:16.242Z,10.40
2023-03-01T01:33:44.559Z,15.17
2023-03-01T01:36:13.060Z,13.73
2023-03-01T01:38:43.133Z,12.73
2023-03-01T01:41:13.872Z,13.27
2023-03-01T01:43:43.375Z,11.20
2023-03-01T01:46:23.004Z,13.57
2023-03-01T01:48:55.770Z,11.30
2023-03-01T01:51:39.414Z,14.97
2023-03-01T01:54:11.910Z,10.67
2023-03-01T01:56:45.140Z,12.00
2023-03-01T01:59:13.799Z,15.27
2023-03-01T02:01:41.696Z,12.47
2023-03-01T02:04:09.563Z,13.80
2023-03-01T02:06:43.246Z,12.00
2023-03-01T02:09:17.631Z,13.03
2023-03-01T02:11:46.920Z,14.03
2023-03-01T02:14:15.165Z,11.07
2023-03-01T02:16:43.379Z,11.30
2023-03-01T02:19:19.890Z,13.90
2023-03-01T02:21:58.577Z,14.37
2023-03-01T02:24:33.856Z,14.10
2023-03-01T02:27:03.260Z,14.37
2023-03-01T02:29:32.457Z,13.20
2023-03-01T02:32:04.181Z,16.47
2023-03-01T02:34:34.455Z,12.10
2023-03-01T02:37:05.586Z,13.90
2023-03-01T02:39:38.815Z,14.07
2023-03-01T02:42:07.899Z,14.97
2023-03-01T02:44:37.167Z,13.17
2023-03-01T02:47:07.104Z,13.47
2023-03-01T02:49:37.228Z,19.93
2023-03-01T02:52:30.341Z,15.77
2023-03-01T02:55:02.428Z,15.03
2023-03-01T02:57:32.079Z,12.60
2023-03-01T03:00:07.935Z,16.40
2023-03-01T03:02:40.155Z,14.13
2023-03-01T03:05:11.206Z,13.63
2023-03-01T03:07:40.882Z,14.17
2023-03-01T03:10:12.976Z,12.60
2023-03-01T03:12:41.856Z,13.70
2023-03-01T03:15:13.560Z,13.33
2023-03-01T03:17:45.237Z,14.70
2023-03-01T03:20:19.789Z,17.70
2023-03-01T03:22:48.786Z,14.73
2023-03-01T03:25:16.880Z,15.73
2023-03-01T03:27:46.381Z,12.57
2023-03-01T03:30:18.034Z,14.47
2023-03-01T03:32:53.169Z,16.17
2023-03-01T03:35:22.361Z,13.37
2023-03-01T03:38:04.582Z,17.57
2023-03-01T03:40:34.168Z,15.70
2023-03-01T03:43:02.425Z,25.33
2023-03-01T03:45:34.164Z,15.97
2023-03-01T03:48:02.552Z,13.40
2023-03-01T03:50:31.005Z,14.17
2023-03-01T03:52:58.964Z,19.20
2023-03-01T03:55:31.372Z,14.67
2023-03-01T03:58:03.187Z,12.83
2023-03-01T04:00:32.477Z,14.33
2023-03-01T04:03:00.346Z,15.93
2023-03-01T04:05:29.392Z,14.13
2023-03-01T04:08:02.921Z,12.63
2023-03-01T04:10:32.152Z,14.10
2023-03-01T04:13:00.306Z,17.33
2023-03-01T04:15:29.195Z,15.20
2023-03-01T04:17:59.883Z,17.77
2023-03-01T04:20:30.463Z,14.20
2023-03-01T04:23:11.373Z,13.67
2023-03-01T04:25:40.962Z,15.63
2023-03-01T04:28:09.634Z,14.87
2023-03-01T04:30:37.601Z,15.23
2023-03-01T04:33:08.826Z,14.30
2023-03-01T04:35:37.624Z,16.03
2023-03-01T04:38:06.151Z,16.93
2023-03-01T04:40:34.404Z,19.23
2023-03-01T04:43:02.332Z,16.13
2023-03-01T04:45:30.297Z,14.67
2023-03-01T04:47:59.190Z,16.83
2023-03-01T04:50:28.566Z,17.20
2023-03-01T04:52:59.413Z,22.20
2023-03-01T04:55:28.241Z,15.27
2023-03-01T04:57:56.820Z,17.03
2023-03-01T05:00:25.711Z,17.77
2023-03-01T05:02:55.383Z,15.43
2023-03-01T05:05:26.616Z,18.03
2023-03-01T05:07:57.951Z,15.13
2023-03-01T05:10:26.584Z,15.83
2023-03-01T05:12:54.577Z,15.83
2023-03-01T05:15:26.542Z,14.87
2023-03-01T05:17:56.091Z,17.90
2023-03-01T05:20:24.874Z,17.23
2023-03-01T05:22:53.467Z,18.80
2023-03-01T05:25:23.012Z,18.53
2023-03-01T05:27:50.932Z,36.93
2023-03-01T05:30:19.941Z,30.23
2023-03-01T05:32:49.637Z,19.37
2023-03-01T05:35:20.070Z,15.63
2023-03-01T05:37:49.794Z,16.07
2023-03-01T05:40:20.356Z,17.00
2023-03-01T05:42:51.256Z,15.00
2023-03-01T05:45:19.618Z,17.37
2023-03-01T05:47:49.013Z,14.70
2023-03-01T05:50:20.082Z,16.77
2023-03-01T05:52:49.447Z,16.77
2023-03-01T05:55:18.381Z,22.70
2023-03-01T05:57:46.410Z,19.90
2023-03-01T06:00:19.263Z,19.60
2023-03-01T06:02:47.352Z,13.80
2023-03-01T06:05:16.620Z,18.67
2023-03-01T06:07:44.902Z,17.97
2023-03-01T06:10:14.047Z,15.57
2023-03-01T06:12:43.332Z,14.13
2023-03-01T06:15:13.004Z,19.43
2023-03-01T06:17:44.035Z,18.03
2023-03-01T06:20:15.610Z,16.87
2023-03-01T06:22:43.849Z,17.20
2023-03-01T06:25:13.432Z,18.40
2023-03-01T06:27:41.691Z,20.83
2023-03-01T06:30:11.633Z,20.30
2023-03-01T06:32:43.022Z,17.87
2023-03-01T06:35:14.057Z,18.47
2023-03-01T06:37:42.145Z,20.93
2023-03-01T06:40:13.794Z,23.30
2023-03-01T06:42:44.053Z,19.90
2023-03-01T06:45:12.861Z,22.03
2023-03-01T06:47:40.889Z,21.47
2023-03-01T06:50:10.240Z,17.63
2023-03-01T06:52:40.098Z,19.67
2023-03-01T06:55:09.125Z,18.57
2023-03-01T06:57:37.039Z,20.97
2023-03-01T07:00:05.496Z,28.10
2023-03-01T07:02:33.789Z,19.70
2023-03-01T07:05:01.735Z,18.37
2023-03-01T07:07:29.633Z,14.83
2023-03-01T07:09:58.923Z,14.63
2023-03-01T07:12:26.909Z,15.30
2023-03-01T07:14:54.813Z,19.27
2023-03-01T07:17:22.663Z,20.57
2023-03-01T07:19:50.592Z,28.17
2023-03-01T07:22:18.601Z,20.27
2023-03-01T07:24:46.510Z,17.70
2023-03-01T07:27:15.884Z,16.50
2023-03-01T07:29:43.830Z,15.73
2023-03-01T07:32:12.802Z,17.63
2023-03-01T07:34:40.782Z,17.93
2023-03-01T07:37:08.696Z,15.53
2023-03-01T07:39:36.604Z,15.43
2023-03-01T07:42:04.603Z,16.13
2023-03-01T07:44:33.918Z,20.33
2023-03-01T07:47:02.087Z,16.33
2023-03-01T07:49:30.014Z,21.77
2023-03-01T07:51:58.070Z,19.87
2023-03-01T07:54:27.241Z,16.47
2023-03-01T07:56:55.727Z,18.87
2023-03-01T07:59:24.676Z,19.20
2023-03-01T08:01:53.960Z,18.23
2023-03-01T08:04:21.826Z,19.80
2023-03-01T08:06:49.764Z,16.23
2023-03-01T08:09:17.656Z,15.70
2023-03-01T08:11:45.506Z,16.03
2023-03-01T08:14:13.445Z,17.13
2023-03-01T08:16:41.449Z,18.63
2023-03-01T08:19:12.861Z,18.57
2023-03-01T08:21:41.084Z,18.27
2023-03-01T08:24:11.188Z,20.10
2023-03-01T08:26:39.396Z,19.50
2023-03-01T08:29:07.562Z,17.07
2023-03-01T08:31:37.647Z,15.17
2023-03-01T08:34:08.551Z,23.63
2023-03-01T08:36:43.438Z,29.57
2023-03-01T08:39:13.274Z,17.53
2023-03-01T08:41:41.618Z,18.07
2023-03-01T08:44:11.125Z,18.60
2023-03-01T08:46:41.262Z,18.17
2023-03-01T08:49:10.142Z,18.07
2023-03-01T08:51:39.543Z,16.47
2023-03-01T08:54:09.070Z,19.37
2023-03-01T08:56:36.940Z,17.97
2023-03-01T08:59:04.900Z,17.70
2023-03-01T09:01:32.760Z,17.13
2023-03-01T09:04:01.105Z,18.40
2023-03-01T09:06:29.210Z,18.03
2023-03-01T09:08:58.539Z,19.00
2023-03-01T09:11:26.582Z,20.60
2023-03-01T09:13:54.447Z,19.70
2023-03-01T09:16:23.914Z,15.77
2023-03-01T09:18:53.218Z,18.50
2023-03-01T09:21:37.620Z,15.50
2023-03-01T09:24:08.990Z,17.60
2023-03-01T09:26:36.946Z,22.67
2023-03-01T09:29:04.892Z,16.33
2023-03-01T09:31:32.867Z,16.67
2023-03-01T09:34:00.763Z,17.13
2023-03-01T09:36:29.967Z,13.32
2023-03-01T09:38:59.575Z,14.48
2023-03-01T09:41:48.612Z,15.10
2023-03-01T09:44:27.119Z,15.38
2023-03-01T09:46:55.106Z,16.77
2023-03-01T09:49:25.733Z,11.88
2023-03-01T09:52:08.545Z,15.57
2023-03-01T09:54:39.492Z,13.98
2023-03-01T09:57:19.538Z,15.75
2023-03-01T10:00:12.854Z,16.27
2023-03-01T10:02:45.793Z,15.20
2023-03-01T10:05:32.276Z,15.27
2023-03-01T10:08:15.962Z,14.93
2023-03-01T10:10:47.956Z,15.70
2023-03-01T10:13:21.447Z,15.32
2023-03-01T10:15:56.107Z,14.45
2023-03-01T10:18:26.756Z,15.02
2023-03-01T10:20:58.277Z,12.00
2023-03-01T10:23:29.019Z,14.20
2023-03-01T10:26:16.609Z,14.02
2023-03-01T10:28:56.339Z,13.82
2023-03-01T10:31:29.412Z,11.82
2023-03-01T10:33:59.928Z,14.63
2023-03-01T10:36:27.894Z,13.98
2023-03-01T10:38:58.866Z,13.52
2023-03-01T10:41:28.490Z,11.32
2023-03-01T10:44:01.141Z,11.82
2023-03-01T10:46:30.802Z,11.00
2023-03-01T10:49:20.865Z,11.73
2023-03-01T10:51:51.106Z,12.23
2023-03-01T10:54:21.599Z,12.68
2023-03-01T10:56:51.634Z,10.82
2023-03-01T10:59:29.118Z,12.55
2023-03-01T11:02:15.027Z,11.80
2023-03-01T11:05:02.958Z,11.43
2023-03-01T11:07:31.456Z,12.30
2023-03-01T11:09:59.478Z,10.70
2023-03-01T11:12:30.708Z,12.05
2023-03-01T11:15:00.309Z,12.57
2023-03-01T11:17:34.672Z,11.85
2023-03-01T11:20:20.889Z,12.77
2023-03-01T11:22:54.529Z,11.38
2023-03-01T11:25:26.732Z,13.57
2023-03-01T11:27:56.975Z,10.55
2023-03-01T11:30:30.780Z,12.85
2023-03-01T11:33:15.484Z,11.20
2023-03-01T11:35:47.231Z,11.23
2023-03-01T11:38:23.364Z,10.20
2023-03-01T11:40:59.654Z,13.32
2023-03-01T11:43:37.864Z,11.85
2023-03-01T11:46:35.742Z,12.52
2023-03-01T11:49:17.857Z,13.27
2023-03-01T11:51:54.497Z,12.23
2023-03-01T11:54:36.919Z,13.00
2023-03-01T11:57:13.248Z,14.40
2023-03-01T12:00:08.777Z,13.93
2023-03-01T12:06:14.210Z,13.43
2023-03-01T12:08:48.098Z,11.60
2023-03-01T12:11:31.034Z,13.43
2023-03-01T12:14:41.036Z,12.13
2023-03-01T12:17:21.138Z,16.20
2023-03-01T12:20:11.995Z,11.45
2023-03-01T12:23:03.572Z,16.25
2023-03-01T12:25:41.284Z,11.50
2023-03-01T12:28:42.700Z,14.13
2023-03-01T12:31:59.279Z,12.63
2023-03-01T12:34:47.076Z,12.07
2023-03-01T12:37:35.443Z,12.27
2023-03-01T12:40:32.945Z,12.90
2023-03-01T12:43:11.467Z,12.82
2023-03-01T12:45:56.413Z,13.43
2023-03-01T12:48:38.988Z,13.38
2023-03-01T12:51:11.653Z,13.05
2023-03-01T12:53:43.364Z,11.90
2023-03-01T12:56:16.110Z,12.68
2023-03-01T12:58:57.552Z,13.38
2023-03-01T13:01:39.392Z,15.82
2023-03-01T13:04:19.456Z,13.05
2023-03-01T13:06:56.132Z,12.25
2023-03-01T13:09:32.203Z,11.75
2023-03-01T13:12:02.922Z,12.90
2023-03-01T13:14:46.027Z,13.38
2023-03-01T13:17:35.814Z,13.05
2023-03-01T13:20:05.079Z,10.30
2023-03-01T13:22:39.769Z,11.02
2023-03-01T13:25:18.102Z,10.70
2023-03-01T13:27:48.251Z,13.20
2023-03-01T13:30:42.293Z,10.85
2023-03-01T13:33:47.420Z,12.20
2023-03-01T13:36:49.675Z,13.82
2023-03-01T13:39:34.185Z,12.70
2023-03-01T13:42:02.693Z,12.00
2023-03-01T13:44:36.996Z,15.07
2023-03-01T13:47:18.338Z,11.83
2023-03-01T13:49:50.955Z,14.50
2023-03-01T13:52:36.715Z,14.47
2023-03-01T13:55:08.004Z,13.37
2023-03-01T13:57:40.108Z,11.87
2023-03-01T14:00:31.622Z,13.10
2023-03-01T14:03:17.418Z,10.00
2023-03-01T14:06:11.554Z,11.33
2023-03-01T14:08:42.365Z,13.00
2023-03-01T14:11:44.198Z,11.37
2023-03-01T14:14:34.500Z,12.07
2023-03-01T14:17:16.754Z,14.97
2023-03-01T14:19:47.336Z,13.33
2023-03-01T14:22:22.643Z,14.43
2023-03-01T14:24:53.340Z,12.30
2023-03-01T14:27:22.104Z,12.13
2023-03-01T14:29:57.869Z,12.07
2023-03-01T14:32:29.895Z,13.07
2023-03-01T14:34:58.849Z,11.73
2023-03-01T14:37:28.702Z,13.83
2023-03-01T14:39:58.073Z,12.87
2023-03-01T14:42:29.798Z,15.13
2023-03-01T14:44:59.922Z,14.67
2023-03-01T14:47:32.857Z,13.03
2023-03-01T14:50:03.529Z,14.93
2023-03-01T14:52:36.974Z,24.87
2023-03-01T14:55:08.062Z,13.43
2023-03-01T14:57:35.969Z,13.90
2023-03-01T15:00:08.099Z,14.13
2023-03-01T15:02:39.793Z,14.70
2023-03-01T15:05:09.890Z,13.33
2023-03-01T15:07:41.783Z,12.27
2023-03-01T15:10:19.624Z,14.57
2023-03-01T15:12:50.457Z,16.23
2023-03-01T15:15:36.244Z,13.27
2023-03-01T15:18:15.009Z,16.13
2023-03-01T15:20:43.126Z,13.37
2023-03-01T15:23:24.119Z,13.40
2023-03-01T15:25:57.390Z,16.73
2023-03-01T15:28:27.867Z,13.23
2023-03-01T15:30:59.530Z,14.97
2023-03-01T15:33:48.392Z,15.80
2023-03-01T15:36:34.496Z,13.33
2023-03-01T15:39:03.269Z,16.60
2023-03-01T15:41:33.385Z,16.37
2023-03-01T15:44:02.292Z,18.80
2023-03-01T15:46:34.187Z,15.60
2023-03-01T15:49:06.246Z,16.23
2023-03-01T15:51:36.471Z,16.63
2023-03-01T15:54:08.875Z,15.67
2023-03-01T15:56:36.820Z,14.77
2023-03-01T15:59:05.718Z,15.30
2023-03-01T16:01:35.131Z,16.77
2023-03-01T16:04:04.483Z,15.67
2023-03-01T16:06:32.908Z,16.97
2023-03-01T16:09:01.073Z,13.10
2023-03-01T16:11:29.250Z,19.33
2023-03-01T16:13:57.452Z,15.83
2023-03-01T16:16:25.575Z,18.80
2023-03-01T16:18:55.469Z,15.40
2023-03-01T16:21:26.726Z,15.57
2023-03-01T16:23:54.959Z,17.60
2023-03-01T16:26:23.132Z,15.77
2023-03-01T16:28:51.237Z,17.13
2023-03-01T16:31:20.985Z,15.37
2023-03-01T16:33:50.904Z,18.10
2023-03-01T16:36:20.891Z,14.27
2023-03-01T16:38:50.331Z,16.53
2023-03-01T16:41:20.837Z,19.13
2023-03-01T16:43:49.463Z,19.60
2023-03-01T16:46:19.500Z,17.67
2023-03-01T16:48:48.449Z,18.40
2023-03-01T16:51:16.577Z,16.10
2023-03-01T16:53:47.027Z,15.00
2023-03-01T16:56:17.731Z,17.27
2023-03-01T16:58:45.696Z,16.47
2023-03-01T17:01:19.492Z,18.03
2023-03-01T17:03:49.564Z,19.77
2023-03-01T17:06:21.207Z,14.63
2023-03-01T17:08:49.469Z,16.80
2023-03-01T17:11:21.234Z,17.60
2023-03-01T17:13:50.129Z,22.50
2023-03-01T17:16:20.879Z,20.33
2023-03-01T17:18:49.970Z,20.20
2023-03-01T17:21:18.494Z,18.70
2023-03-01T17:23:47.835Z,18.83
2023-03-01T17:26:15.724Z,16.70
2023-03-01T17:28:45.145Z,17.80
2023-03-01T17:31:14.265Z,19.47
2023-03-01T17:33:42.107Z,15.60
2023-03-01T17:36:10.039Z,20.70
2023-03-01T17:38:38.216Z,15.93
2023-03-01T17:41:06.501Z,17.77
2023-03-01T17:43:35.411Z,17.93
2023-03-01T17:46:05.181Z,19.57
2023-03-01T17:48:33.074Z,17.23
2023-03-01T17:51:00.981Z,21.17
2023-03-01T17:53:29.918Z,21.13
2023-03-01T17:56:02.272Z,20.50
2023-03-01T17:58:30.583Z,14.70
2023-03-01T18:01:08.959Z,13.70
2023-03-01T18:03:37.178Z,18.97
2023-03-01T18:06:12.954Z,17.13
2023-03-01T18:08:40.951Z,16.77
2023-03-01T18:11:09.793Z,15.10
2023-03-01T18:13:38.299Z,15.13
2023-03-01T18:16:07.505Z,14.83
2023-03-01T18:18:37.420Z,15.23
2023-03-01T18:21:06.234Z,14.93
2023-03-01T18:23:36.200Z,16.60
2023-03-01T18:26:06.420Z,15.73
2023-03-01T18:28:34.819Z,13.53
2023-03-01T18:31:04.793Z,13.40
2023-03-01T18:33:33.115Z,15.13
2023-03-01T18:36:02.916Z,16.20
2023-03-01T18:38:30.921Z,14.40
2023-03-01T18:40:59.160Z,12.57
2023-03-01T18:43:28.765Z,15.77
2023-03-01T18:45:59.935Z,15.07
2023-03-01T18:48:27.996Z,13.33
2023-03-01T18:50:56.519Z,15.37
2023-03-01T18:53:25.938Z,13.60
2023-03-01T18:55:53.834Z,14.03
2023-03-01T18:58:21.781Z,19.63
2023-03-01T19:00:49.751Z,12.43
2023-03-01T19:03:17.594Z,14.30
2023-03-01T19:05:46.163Z,16.93
2023-03-01T19:08:14.058Z,14.07
2023-03-01T19:10:43.262Z,13.83
2023-03-01T19:13:11.447Z,13.87
2023-03-01T19:15:39.381Z,15.83
2023-03-01T19:18:07.314Z,16.03
2023-03-01T19:20:35.159Z,15.93
2023-03-01T19:23:03.052Z,23.10
2023-03-01T19:25:31.097Z,18.30
2023-03-01T19:28:00.538Z,19.53
2023-03-01T19:30:28.445Z,17.17
2023-03-01T19:32:56.352Z,14.87
2023-03-01T19:35:24.299Z,18.17
2023-03-01T19:37:52.359Z,18.00
2023-03-01T19:40:20.412Z,16.60
2023-03-01T19:42:48.301Z,18.80
2023-03-01T19:45:22.464Z,16.97
2023-03-01T19:47:53.247Z,23.40
2023-03-01T19:50:21.126Z,20.50
2023-03-01T19:52:49.048Z,19.33
2023-03-01T19:55:17.070Z,21.57
2023-03-01T19:57:45.038Z,17.97
2023-03-01T20:00:13.844Z,18.33
2023-03-01T20:02:43.129Z,18.87
2023-03-01T20:05:11.895Z,17.50
2023-03-01T20:07:39.846Z,23.67
2023-03-01T20:10:08.704Z,19.70
2023-03-01T20:12:37.388Z,19.77
2023-03-01T20:15:05.871Z,22.47
2023-03-01T20:17:33.812Z,20.10
2023-03-01T20:20:03.485Z,19.83
2023-03-01T20:22:31.409Z,20.37
2023-03-01T20:24:59.382Z,19.10
2023-03-01T20:27:27.365Z,18.87
2023-03-01T20:29:55.489Z,19.10
2023-03-01T20:32:23.824Z,21.63
2023-03-01T20:34:52.013Z,22.50
2023-03-01T20:37:22.350Z,25.93
2023-03-01T20:39:50.408Z,22.60
2023-03-01T20:42:18.301Z,23.63
2023-03-01T20:44:46.456Z,26.37
2023-03-01T20:47:15.336Z,23.53
2023-03-01T20:49:43.376Z,23.83
2023-03-01T20:52:11.345Z,22.40
2023-03-01T20:54:40.846Z,20.43
2023-03-01T20:57:08.844Z,18.90
2023-03-01T20:59:37.825Z,20.67
2023-03-01T21:02:05.726Z,22.77
2023-03-01T21:04:33.695Z,25.13
2023-03-01T21:07:01.585Z,20.30
2023-03-01T21:09:29.514Z,17.53
2023-03-01T21:11:58.846Z,19.80
2023-03-01T21:14:26.890Z,15.70
2023-03-01T21:16:54.823Z,20.57
2023-03-01T21:19:25.087Z,21.57
2023-03-01T21:21:53.915Z,32.90
2023-03-01T21:24:21.965Z,22.43
2023-03-01T21:26:49.897Z,19.47
2023-03-01T21:29:19.147Z,18.87
2023-03-01T21:31:47.001Z,17.97
2023-03-01T21:34:15.116Z,20.07
2023-03-01T21:36:43.421Z,20.23
2023-03-01T21:39:12.751Z,18.17
2023-03-01T21:41:40.614Z,18.80
2023-03-01T21:44:08.861Z,19.27
2023-03-01T21:46:39.907Z,21.90
2023-03-01T21:49:09.056Z,20.67
2023-03-01T21:51:37.569Z,19.77
2023-03-01T21:54:06.704Z,19.53
2023-03-01T21:56:38.856Z,22.60
2023-03-01T21:59:08.489Z,20.67
2023-03-01T22:01:37.741Z,20.73
2023-03-01T22:04:05.967Z,21.13
2023-03-01T22:06:40.893Z,18.60
2023-03-01T22:09:10.936Z,19.83
2023-03-01T22:11:41.439Z,19.33
2023-03-01T22:14:10.068Z,21.33
2023-03-01T22:16:41.800Z,20.73
2023-03-01T22:19:10.492Z,22.43
2023-03-01T22:21:40.294Z,24.10
2023-03-01T22:24:09.312Z,20.30
2023-03-01T22:26:39.989Z,24.57
2023-03-01T22:29:10.687Z,20.80
2023-03-01T22:31:40.661Z,19.53
2023-03-01T22:34:09.182Z,17.77
2023-03-01T22:36:39.216Z,21.83
2023-03-01T22:39:07.511Z,18.17
2023-03-01T22:41:38.266Z,17.20
2023-03-01T22:44:06.499Z,22.23
2023-03-01T22:46:34.889Z,20.20
2023-03-01T22:49:05.330Z,20.13
2023-03-01T22:51:35.340Z,20.43
2023-03-01T22:54:03.815Z,19.23
2023-03-01T22:56:33.906Z,21.00
2023-03-01T22:59:04.333Z,19.23
2023-03-01T23:01:32.529Z,18.40
2023-03-01T23:04:00.459Z,21.47
2023-03-01T23:06:31.138Z,22.70
2023-03-01T23:09:01.049Z,16.70
2023-03-01T23:11:30.418Z,19.03
2023-03-01T23:14:00.169Z,20.37
2023-03-01T23:16:28.102Z,20.40
2023-03-01T23:18:58.271Z,18.27
2023-03-01T23:21:26.411Z,20.00
2023-03-01T23:23:57.179Z,19.57
2023-03-01T23:26:27.156Z,17.60
2023-03-01T23:28:56.194Z,20.43
2023-03-01T23:31:25.517Z,19.47
2023-03-01T23:33:53.433Z,21.87
2023-03-01T23:36:23.414Z,18.63
2023-03-01T23:38:52.877Z,18.20
2023-03-01T23:41:25.845Z,19.53
2023-03-01T23:43:55.958Z,19.80
2023-03-01T23:46:26.210Z,19.00
2023-03-01T23:48:54.964Z,19.97
2023-03-01T23:51:23.623Z,21.43
2023-03-01T23:53:57.445Z,20.17
2023-03-01T23:56:29.172Z,21.10
2023-03-01T23:58:58.545Z,18.83
